Terminal Aerodrome Forecast
Issued by NWS Charleston, WV

Current Version | Previous Version | Text Only | Print | Product List | Glossary Off
Versions: 1 2 3 4 5 6 7 8 9 10 11 12 13 14 15 16 17 18 19 20 21 22 23 24 25 26 27 28 29 30

000
FTUS41 KRLX 051739
TAFCRW
TAF
KCRW 051739Z 0518/0618 VRB05KT P6SM BKN060
     FM051900 VRB05KT 6SM SHRA VCTS OVC060CB
      TEMPO 0519/0521 2SM TSRA OVC018CB
     FM052100 09006KT 5SM SHRA VCTS BKN020CB OVC060
     FM060000 09005KT P6SM VCSH OVC020
     FM060300 00000KT 2SM BR BKN015
     FM060900 00000KT 1SM BR OVC004
     FM061300 24004KT 4SM BR OVC007
     FM061400 VRB03KT 5SM SHRA OVC012
     FM061600 26004KT P6SM SHRA VCTS BKN025CB=

USA.gov is the U.S. government's official web portal to all federal, state and local government web resources and services.